createdAt,value
2023-02-06T00:00:07.909Z,2.84
2023-02-06T00:05:11.837Z,2.89
2023-02-06T00:10:15.148Z,3.03
2023-02-06T00:15:18.674Z,3.15
2023-02-06T00:20:21.776Z,3.18
2023-02-06T00:25:24.886Z,3.14
2023-02-06T00:30:27.998Z,3.10
2023-02-06T00:35:31.212Z,3.13
2023-02-06T00:40:34.113Z,3.14
2023-02-06T00:45:37.263Z,3.14
2023-02-06T00:50:40.432Z,3.19
2023-02-06T00:55:43.645Z,3.27
2023-02-06T01:00:46.651Z,2.76
2023-02-06T01:05:49.655Z,1.15
2023-02-06T01:10:52.760Z,0.12
2023-02-06T01:15:55.799Z,-0.58
2023-02-06T01:20:58.672Z,0.08
2023-02-06T01:26:14.682Z,1.69
2023-02-06T01:31:27.083Z,2.02
2023-02-06T01:36:30.011Z,2.21
2023-02-06T01:41:33.532Z,2.47
2023-02-06T01:46:37.822Z,2.65
2023-02-06T01:51:41.387Z,2.77
2023-02-06T01:56:52.585Z,2.89
2023-02-06T02:01:56.103Z,2.89
2023-02-06T02:07:07.301Z,2.95
2023-02-06T02:12:10.512Z,2.96
2023-02-06T02:17:22.636Z,2.97
2023-02-06T02:22:56.363Z,2.99
2023-02-06T02:28:30.104Z,2.96
2023-02-06T02:33:51.940Z,2.85
2023-02-06T02:39:13.597Z,2.78
2023-02-06T02:44:30.107Z,2.73
2023-02-06T02:49:36.865Z,2.63
2023-02-06T02:54:39.906Z,2.64
2023-02-06T02:59:45.988Z,2.60
2023-02-06T03:04:54.107Z,2.51
2023-02-06T03:10:06.126Z,2.36
2023-02-06T03:15:35.310Z,2.21
2023-02-06T03:20:43.369Z,2.21
2023-02-06T03:25:50.307Z,2.21
2023-02-06T03:30:57.074Z,2.32
2023-02-06T03:36:00.665Z,2.35
2023-02-06T03:41:05.921Z,2.27
2023-02-06T03:46:12.952Z,2.20
2023-02-06T03:51:25.169Z,2.15
2023-02-06T03:56:31.861Z,2.06
2023-02-06T04:01:35.231Z,2.16
2023-02-06T04:06:38.285Z,2.17
2023-02-06T04:11:41.499Z,2.17
2023-02-06T04:16:44.645Z,2.10
2023-02-06T04:21:47.617Z,2.09
2023-02-06T04:26:50.621Z,2.10
2023-02-06T04:31:53.625Z,2.07
2023-02-06T04:36:57.429Z,2.00
2023-02-06T04:42:00.771Z,2.05
2023-02-06T04:47:03.778Z,2.01
2023-02-06T04:52:06.779Z,1.98
2023-02-06T04:57:09.787Z,2.01
2023-02-06T05:02:12.805Z,2.06
2023-02-06T05:07:15.894Z,2.12
2023-02-06T05:12:19.113Z,2.12
2023-02-06T05:17:22.207Z,2.07
2023-02-06T05:22:25.421Z,2.08
2023-02-06T05:27:28.529Z,2.11
2023-02-06T05:32:31.647Z,2.14
2023-02-06T05:37:34.751Z,2.16
2023-02-06T05:42:37.755Z,2.12
2023-02-06T05:47:40.871Z,2.04
2023-02-06T05:52:43.870Z,2.10
2023-02-06T05:57:46.986Z,2.12
2023-02-06T06:02:50.096Z,2.04
2023-02-06T06:07:53.313Z,1.93
2023-02-06T06:12:57.249Z,1.85
2023-02-06T06:18:00.446Z,1.92
2023-02-06T06:23:03.554Z,1.87
2023-02-06T06:28:06.780Z,1.91
2023-02-06T06:33:09.786Z,1.81
2023-02-06T06:38:12.877Z,1.88
2023-02-06T06:43:16.097Z,1.88
2023-02-06T06:48:19.202Z,1.93
2023-02-06T06:53:22.515Z,2.07
2023-02-06T06:58:25.517Z,2.26
2023-02-06T07:03:28.522Z,2.47
2023-02-06T07:08:31.944Z,2.54
2023-02-06T07:13:35.048Z,2.38
2023-02-06T07:18:40.113Z,6.02
2023-02-06T07:23:43.114Z,6.46
2023-02-06T07:28:46.431Z,6.66
2023-02-06T07:33:49.887Z,6.28
2023-02-06T07:38:52.849Z,5.95
2023-02-06T07:43:55.955Z,7.21
2023-02-06T07:48:58.967Z,8.64
2023-02-06T07:54:02.080Z,9.94
2023-02-06T07:59:05.796Z,10.80
2023-02-06T08:04:09.018Z,11.69
2023-02-06T08:09:18.881Z,12.47
2023-02-06T08:14:21.906Z,12.64
2023-02-06T08:19:25.195Z,12.84
2023-02-06T08:24:28.511Z,12.99
2023-02-06T08:29:31.830Z,13.10
2023-02-06T08:34:35.448Z,12.48
2023-02-06T08:39:38.754Z,9.79
2023-02-06T08:44:41.866Z,7.23
2023-02-06T08:49:45.088Z,5.42
2023-02-06T08:54:51.327Z,4.31
2023-02-06T08:59:54.264Z,3.59
2023-02-06T09:04:57.270Z,3.20
2023-02-06T09:10:00.379Z,3.11
2023-02-06T09:15:04.483Z,3.13
2023-02-06T09:20:08.432Z,2.89
2023-02-06T09:25:11.851Z,2.75
2023-02-06T09:30:15.544Z,2.69
2023-02-06T09:35:18.475Z,2.57
2023-02-06T09:40:27.039Z,2.70
2023-02-06T09:45:32.370Z,2.85
2023-02-06T09:50:46.334Z,2.98
2023-02-06T09:56:02.037Z,3.10
2023-02-06T10:01:13.340Z,3.34
2023-02-06T10:06:22.257Z,3.74
2023-02-06T10:11:54.644Z,4.13
2023-02-06T10:17:04.455Z,4.27
2023-02-06T10:22:14.513Z,4.14
2023-02-06T10:27:17.694Z,3.84
2023-02-06T10:32:38.355Z,3.63
2023-02-06T10:38:05.117Z,3.50
2023-02-06T10:43:10.786Z,3.38
2023-02-06T10:48:21.985Z,3.24
2023-02-06T10:53:36.354Z,3.20
2023-02-06T10:58:45.474Z,3.19
2023-02-06T11:04:17.190Z,3.26
2023-02-06T11:09:20.193Z,3.27
2023-02-06T11:14:28.096Z,3.30
2023-02-06T11:19:46.486Z,3.35
2023-02-06T11:24:59.930Z,3.35
2023-02-06T11:30:33.629Z,3.30
2023-02-06T11:35:55.361Z,3.28
2023-02-06T11:41:16.435Z,3.26
2023-02-06T11:46:24.247Z,3.23
2023-02-06T11:51:51.513Z,3.17
2023-02-06T11:56:57.397Z,3.15
2023-02-06T12:02:05.810Z,3.19
2023-02-06T12:07:08.741Z,3.17
2023-02-06T12:12:33.661Z,3.17
2023-02-06T12:17:41.068Z,3.12
2023-02-06T12:22:49.568Z,3.05
2023-02-06T12:27:58.668Z,4.22
2023-02-06T12:33:14.250Z,5.29
2023-02-06T12:38:37.715Z,4.28
2023-02-06T12:43:43.811Z,3.76
2023-02-06T12:49:20.314Z,3.45
2023-02-06T12:54:48.396Z,3.11
2023-02-06T13:00:07.786Z,2.95
2023-02-06T13:05:27.484Z,2.82
2023-02-06T13:10:30.612Z,5.06
2023-02-06T13:15:38.583Z,6.83
2023-02-06T13:21:15.833Z,5.00
2023-02-06T13:26:19.148Z,3.83
2023-02-06T13:31:26.081Z,3.24
2023-02-06T13:36:43.081Z,2.85
2023-02-06T13:41:46.293Z,2.54
2023-02-06T13:46:56.132Z,2.27
2023-02-06T13:51:59.070Z,2.03
2023-02-06T13:57:20.805Z,2.12
2023-02-06T14:02:44.831Z,5.37
2023-02-06T14:08:14.757Z,4.96
2023-02-06T14:13:29.933Z,3.29
2023-02-06T14:19:12.476Z,2.41
2023-02-06T14:24:23.168Z,1.77
2023-02-06T14:29:35.272Z,2.87
2023-02-06T14:35:32.966Z,4.85
2023-02-06T14:40:41.701Z,2.82
2023-02-06T14:46:06.133Z,1.76
2023-02-06T14:51:43.840Z,1.02
2023-02-06T14:56:47.047Z,0.43
2023-02-06T15:01:52.820Z,-0.01
2023-02-06T15:07:02.156Z,1.08
2023-02-06T15:12:29.094Z,5.41
2023-02-06T15:17:34.165Z,3.97
2023-02-06T15:22:37.098Z,2.25
2023-02-06T15:27:40.210Z,1.35
2023-02-06T15:32:51.360Z,2.43
2023-02-06T15:37:55.431Z,4.14
2023-02-06T15:42:59.346Z,2.37
2023-02-06T15:48:11.178Z,2.89
2023-02-06T15:53:28.395Z,6.46
2023-02-06T15:58:33.289Z,4.27
2023-02-06T16:03:41.001Z,2.34
2023-02-06T16:08:54.745Z,2.05
2023-02-06T16:13:57.968Z,6.12
2023-02-06T16:19:00.972Z,5.17
2023-02-06T16:24:17.697Z,2.71
2023-02-06T16:29:32.688Z,1.31
2023-02-06T16:34:42.310Z,0.50
2023-02-06T16:39:46.567Z,1.62
2023-02-06T16:44:53.385Z,5.53
2023-02-06T16:49:56.465Z,6.14
2023-02-06T16:55:00.471Z,3.41
2023-02-06T17:00:09.641Z,1.83
2023-02-06T17:05:13.686Z,0.84
2023-02-06T17:10:23.553Z,1.82
2023-02-06T17:15:26.793Z,5.17
2023-02-06T17:20:29.769Z,3.34
2023-02-06T17:25:33.188Z,1.45
2023-02-06T17:30:38.165Z,2.85
2023-02-06T17:35:41.363Z,6.12
2023-02-06T17:40:44.713Z,5.09
2023-02-06T17:45:48.082Z,2.71
2023-02-06T17:50:50.990Z,1.51
2023-02-06T17:55:54.204Z,2.39
2023-02-06T18:00:57.106Z,6.02
2023-02-06T18:06:01.641Z,5.02
2023-02-06T18:11:11.609Z,2.62
2023-02-06T18:16:23.545Z,1.34
2023-02-06T18:21:29.619Z,2.44
2023-02-06T18:26:33.139Z,5.78
2023-02-06T18:31:36.794Z,3.58
2023-02-06T18:36:40.157Z,1.95
2023-02-06T18:42:02.541Z,4.45
2023-02-06T18:47:05.975Z,5.14
2023-02-06T18:52:09.826Z,2.82
2023-02-06T18:57:12.763Z,2.44
2023-02-06T19:02:16.587Z,5.51
2023-02-06T19:07:20.238Z,6.38
2023-02-06T19:12:23.862Z,3.69
2023-02-06T19:17:28.044Z,2.02
2023-02-06T19:22:37.642Z,2.01
2023-02-06T19:27:40.647Z,5.88
2023-02-06T19:32:43.870Z,4.52
2023-02-06T19:37:46.858Z,2.44
2023-02-06T19:42:49.758Z,2.99
2023-02-06T19:47:53.588Z,6.31
2023-02-06T19:52:57.007Z,4.16
2023-02-06T19:57:59.901Z,2.25
2023-02-06T20:03:02.903Z,1.24
2023-02-06T20:08:05.911Z,1.68
2023-02-06T20:13:09.021Z,2.96
2023-02-06T20:18:12.748Z,3.50
2023-02-06T20:23:15.754Z,3.89
2023-02-06T20:28:18.997Z,4.06
2023-02-06T20:33:21.978Z,4.16
2023-02-06T20:38:25.098Z,4.36
2023-02-06T20:43:28.678Z,4.51
2023-02-06T20:48:33.038Z,4.65
2023-02-06T20:53:36.150Z,4.74
2023-02-06T20:58:39.460Z,4.62
2023-02-06T21:03:43.236Z,3.17
2023-02-06T21:08:47.505Z,2.34
2023-02-06T21:13:50.536Z,6.10
2023-02-06T21:18:55.176Z,6.43
2023-02-06T21:23:58.483Z,3.73
2023-02-06T21:29:02.638Z,2.30
2023-02-06T21:34:18.533Z,3.16
2023-02-06T21:39:26.931Z,6.88
2023-02-06T21:44:30.185Z,6.46
2023-02-06T21:49:33.192Z,3.79
2023-02-06T21:54:36.707Z,3.90
2023-02-06T21:59:41.142Z,6.64
2023-02-06T22:04:44.453Z,4.22
2023-02-06T22:09:47.461Z,2.54
2023-02-06T22:14:50.676Z,2.67
2023-02-06T22:19:54.656Z,6.36
2023-02-06T22:24:57.634Z,5.57
2023-02-06T22:30:00.929Z,3.23
2023-02-06T22:35:04.644Z,3.46
2023-02-06T22:40:08.022Z,6.50
2023-02-06T22:45:11.060Z,4.74
2023-02-06T22:50:14.378Z,2.88
2023-02-06T22:55:17.588Z,3.78
2023-02-06T23:00:20.705Z,6.85
2023-02-06T23:05:23.704Z,5.63
2023-02-06T23:10:27.124Z,3.35
2023-02-06T23:15:30.131Z,3.70
2023-02-06T23:20:36.536Z,6.61
2023-02-06T23:25:44.304Z,4.33
2023-02-06T23:30:47.951Z,2.61
2023-02-06T23:35:51.445Z,3.38
2023-02-06T23:40:54.371Z,6.25
2023-02-06T23:45:57.487Z,4.25
2023-02-06T23:51:00.995Z,4.70
2023-02-06T23:56:12.919Z,6.30
